Big Bend, Wisconsin
Current Conditions -  °F | °C
As of 9:15 PM on Tuesday 25 Nov 2014 (Local Time) from KUES Reporting Station
Overcast Overcast  
Wind Chill: 18°   Ceiling: 1300
Heat Index: 18°   Visibility: 10mi
Dew Point: 14°   Wind: 3mph
Humidity: 86%   Direction: 200°SSW
Pressure: 30.16"   Gusts: NA
Location:  42.88°N, 88.21°W
Report Text: KUES 260315Z AUTO 20003KT 10SM OVC013 M08/M10 A3016 RMK AO2
Loading
Personal Weather Stations






























Interactive Weather Map New forecast layout! Learn more

10-Day Weather Forecast

Advertisements
Track Severe Weather on mobile